Time;durP1;ratioP1;P1;durP2;ratioP2;P2;SDS_P1;SDS_P2;PMS_P1;PMS_P2;Temp;Humidity;BMP_temperature;BMP_pressure;BME280_temperature;BME280_humidity;BME280_pressure;Samples;Min_cycle;Max_cycle;Signal;HPM_P1;HPM_P2
2022/11/18 00:01:33;;;;;;;1.80;1.00;;;7.50;99.90;;;;;;5092910;28;20461;-83
2022/11/18 00:03:58;;;;;;;3.17;1.37;;;7.50;99.90;;;;;;5092909;28;20035;-82
2022/11/18 00:06:26;;;;;;;2.73;1.20;;;7.50;99.90;;;;;;5092187;28;20044;-83
2022/11/18 00:08:53;;;;;;;2.47;1.03;;;7.50;99.90;;;;;;5092648;28;20027;-82
2022/11/18 00:14:22;;;;;;;2.60;1.17;;;7.50;99.90;;;;;;5091795;28;20019;-82
2022/11/18 00:16:56;;;;;;;1.97;1.00;;;7.50;99.90;;;;;;5091684;28;20052;-83
2022/11/18 00:19:25;;;;;;;3.72;1.23;;;7.50;99.90;;;;;;5092752;28;20024;-82
2022/11/18 00:21:51;;;;;;;1.57;0.80;;;7.50;99.90;;;;;;5091662;28;20078;-82
2022/11/18 00:24:17;;;;;;;2.60;0.90;;;7.50;99.90;;;;;;5092298;28;20024;-82
2022/11/18 00:26:42;;;;;;;3.20;1.20;;;7.40;99.90;;;;;;5091744;28;20067;-82
2022/11/18 00:29:09;;;;;;;5.30;1.03;;;7.40;99.90;;;;;;5091928;28;20107;-82
2022/11/18 00:31:35;;;;;;;1.63;0.90;;;7.40;99.90;;;;;;5092475;28;20028;-82
2022/11/18 00:34:01;;;;;;;2.33;1.33;;;7.40;99.90;;;;;;5091140;28;20395;-82
2022/11/18 00:36:28;;;;;;;1.47;0.90;;;7.40;99.90;;;;;;5092248;28;20028;-82
2022/11/18 00:38:54;;;;;;;2.90;0.97;;;7.40;99.90;;;;;;5092394;28;20053;-81
2022/11/18 00:41:19;;;;;;;1.43;0.97;;;7.40;99.90;;;;;;5092332;28;20090;-82
2022/11/18 00:43:45;;;;;;;1.40;0.97;;;7.40;99.90;;;;;;5092190;28;20033;-82
2022/11/18 00:46:11;;;;;;;1.30;0.90;;;7.30;99.90;;;;;;5092818;28;20024;-81
2022/11/18 00:48:38;;;;;;;1.27;0.77;;;7.30;99.90;;;;;;5092168;28;20130;-82
2022/11/18 00:51:13;;;;;;;0.80;0.70;;;7.30;99.90;;;;;;5092235;28;20103;-81
2022/11/18 00:53:39;;;;;;;1.47;0.90;;;7.30;99.90;;;;;;5092345;28;20032;-82
2022/11/18 00:56:05;;;;;;;1.97;0.80;;;7.30;99.90;;;;;;5077718;28;20028;-82
2022/11/18 00:58:31;;;;;;;2.20;1.00;;;7.30;99.90;;;;;;5083581;28;20469;-82
2022/11/18 01:00:57;;;;;;;3.17;1.10;;;7.30;99.90;;;;;;5092088;28;20034;-82
2022/11/18 01:03:24;;;;;;;2.33;1.10;;;7.30;99.90;;;;;;5092396;28;20028;-82
2022/11/18 01:05:50;;;;;;;3.73;1.97;;;7.20;99.90;;;;;;5091677;28;20039;-82
2022/11/18 01:08:17;;;;;;;1.57;0.90;;;7.20;99.90;;;;;;5091658;28;20032;-82
2022/11/18 01:10:43;;;;;;;1.73;0.90;;;7.30;99.90;;;;;;5091691;28;20024;-83
2022/11/18 01:13:18;;;;;;;0.87;0.77;;;7.20;99.90;;;;;;5091808;28;20073;-82
2022/11/18 01:15:55;;;;;;;3.25;0.80;;;7.20;99.90;;;;;;5091616;28;20028;-82
2022/11/18 01:18:23;;;;;;;3.93;1.10;;;7.20;99.90;;;;;;5091562;28;20044;-82
2022/11/18 01:20:49;;;;;;;2.30;1.00;;;7.20;99.90;;;;;;5091437;28;20107;-82
2022/11/18 01:23:15;;;;;;;2.13;1.00;;;7.20;99.90;;;;;;5091784;28;20521;-82
2022/11/18 01:25:43;;;;;;;2.67;1.30;;;7.20;99.90;;;;;;5091588;28;20154;-82
2022/11/18 01:28:09;;;;;;;3.40;1.37;;;7.20;99.90;;;;;;5091568;28;20035;-82
2022/11/18 01:30:36;;;;;;;1.53;1.00;;;7.20;99.90;;;;;;5091456;28;20031;-82
2022/11/18 01:33:02;;;;;;;2.00;1.17;;;7.20;99.90;;;;;;5091602;28;20059;-82
2022/11/18 01:35:29;;;;;;;1.40;0.93;;;7.20;99.90;;;;;;5091421;28;20016;-82
2022/11/18 01:37:54;;;;;;;3.53;1.17;;;7.20;99.90;;;;;;5090137;28;20023;-82
2022/11/18 01:40:20;;;;;;;3.03;1.40;;;7.20;99.90;;;;;;5093293;28;20457;-82
2022/11/18 01:42:45;;;;;;;2.57;1.30;;;7.10;99.90;;;;;;5095198;28;20028;-82
2022/11/18 01:45:29;;;;;;;5.10;1.60;;;7.10;99.90;;;;;;5094080;28;20092;-82
2022/11/18 01:48:09;;;;;;;3.33;1.40;;;7.20;99.90;;;;;;5074614;28;20131;-82
2022/11/18 01:50:40;;;;;;;4.13;1.90;;;7.10;99.90;;;;;;5075584;28;20037;-82
2022/11/18 01:53:10;;;;;;;2.60;1.93;;;7.10;99.90;;;;;;5093538;28;20024;-82
2022/11/18 01:55:40;;;;;;;2.80;1.73;;;7.10;99.90;;;;;;5094864;28;20073;-83
2022/11/18 01:58:11;;;;;;;2.80;1.37;;;7.10;99.90;;;;;;5094900;28;20379;-82
2022/11/18 02:00:38;;;;;;;3.03;1.30;;;7.10;99.90;;;;;;5094827;28;20024;-82
2022/11/18 02:03:04;;;;;;;1.43;0.97;;;7.10;99.90;;;;;;5094787;28;20082;-82
2022/11/18 02:05:32;;;;;;;1.80;1.03;;;7.10;99.90;;;;;;5095030;28;20016;-83
2022/11/18 02:08:00;;;;;;;2.73;1.13;;;7.10;99.90;;;;;;5094683;28;20111;-82
2022/11/18 02:10:25;;;;;;;2.13;0.93;;;7.10;99.90;;;;;;5095243;28;20434;-82
2022/11/18 02:12:53;;;;;;;1.70;1.00;;;7.10;99.90;;;;;;5094410;28;20020;-82
2022/11/18 02:16:03;;;;;;;1.27;1.03;;;7.10;99.90;;;;;;5094394;28;20112;-82
2022/11/18 02:18:59;;;;;;;2.80;1.30;;;7.10;99.90;;;;;;5081147;28;20457;-82
2022/11/18 02:21:56;;;;;;;1.40;0.90;;;7.10;99.90;;;;;;5093069;28;20032;-82
2022/11/18 02:24:44;;;;;;;1.83;1.00;;;7.10;99.90;;;;;;5094505;28;20031;-82
2022/11/18 02:27:25;;;;;;;2.43;1.30;;;7.10;99.90;;;;;;5094236;28;20036;-83
2022/11/18 02:30:12;;;;;;;1.20;1.00;;;7.10;99.90;;;;;;5094513;28;20032;-82
2022/11/18 02:32:42;;;;;;;3.47;1.10;;;7.10;99.90;;;;;;5086530;28;20047;-82
2022/11/18 02:35:41;;;;;;;4.20;1.20;;;7.00;99.90;;;;;;5094634;28;20024;-81
2022/11/18 02:38:25;;;;;;;2.80;1.10;;;7.10;99.90;;;;;;5094372;28;20032;-82
2022/11/18 02:40:55;;;;;;;1.63;1.10;;;7.10;99.90;;;;;;5094863;28;20062;-82
2022/11/18 02:43:28;;;;;;;3.80;1.27;;;7.00;99.90;;;;;;5094837;28;20028;-82
2022/11/18 02:45:59;;;;;;;2.73;1.17;;;7.00;99.90;;;;;;5094938;28;20099;-82
2022/11/18 02:48:28;;;;;;;2.50;1.07;;;7.00;99.90;;;;;;5074348;28;20037;-82
2022/11/18 02:50:54;;;;;;;1.70;1.20;;;7.00;99.90;;;;;;5074200;28;20020;-82
2022/11/18 02:53:24;;;;;;;1.70;1.10;;;7.00;99.90;;;;;;5073749;28;20027;-82
2022/11/18 02:55:51;;;;;;;2.73;1.47;;;7.00;99.90;;;;;;5074137;28;20048;-82
2022/11/18 02:58:19;;;;;;;3.27;1.73;;;7.00;99.90;;;;;;5093130;28;20024;-82
2022/11/18 03:00:53;;;;;;;2.47;1.43;;;7.00;99.90;;;;;;5094961;28;20057;-81
2022/11/18 03:03:29;;;;;;;4.77;1.40;;;7.00;99.90;;;;;;5094235;28;20054;-81
2022/11/18 03:06:04;;;;;;;4.03;1.40;;;7.00;99.90;;;;;;5094306;28;20046;-82
2022/11/18 03:08:45;;;;;;;3.15;1.60;;;7.00;99.90;;;;;;5094431;28;20100;-82
2022/11/18 03:11:18;;;;;;;3.17;1.67;;;7.00;99.90;;;;;;5093880;28;20377;-82
2022/11/18 03:14:03;;;;;;;5.00;2.27;;;7.00;99.90;;;;;;5093590;28;20489;-81
2022/11/18 03:16:44;;;;;;;4.22;1.90;;;7.00;99.90;;;;;;5093211;28;20024;-81
2022/11/18 03:19:47;;;;;;;3.10;1.60;;;7.00;99.90;;;;;;5093065;28;20126;-82
2022/11/18 03:22:17;;;;;;;4.27;1.40;;;7.00;99.90;;;;;;5003044;28;20035;-82
2022/11/18 03:24:53;;;;;;;3.00;1.27;;;7.00;99.90;;;;;;5059530;28;20037;-81
2022/11/18 03:27:29;;;;;;;2.53;1.20;;;7.00;99.90;;;;;;5073648;28;20028;-81
2022/11/18 03:30:05;;;;;;;3.00;1.70;;;7.00;99.90;;;;;;5073380;28;20048;-81
2022/11/18 03:32:35;;;;;;;3.40;1.47;;;7.00;99.90;;;;;;5082271;28;20024;-82
2022/11/18 03:35:06;;;;;;;3.67;1.53;;;6.90;99.90;;;;;;5093299;28;20036;-81
2022/11/18 03:37:33;;;;;;;3.27;1.30;;;7.00;99.90;;;;;;5093071;28;20077;-81
2022/11/18 03:40:23;;;;;;;2.07;1.00;;;6.90;99.90;;;;;;5093699;28;20081;-81
2022/11/18 03:43:06;;;;;;;1.67;0.90;;;7.00;99.90;;;;;;5092898;28;20047;-81
2022/11/18 03:45:53;;;;;;;2.70;0.80;;;7.00;99.90;;;;;;5093246;28;20063;-82
2022/11/18 03:48:25;;;;;;;1.40;1.00;;;7.00;99.90;;;;;;5092856;28;20093;-81
2022/11/18 03:50:58;;;;;;;0.90;0.80;;;7.00;99.90;;;;;;5092698;28;20109;-81
2022/11/18 03:53:27;;;;;;;2.00;1.00;;;7.00;99.90;;;;;;5092872;28;20028;-81
2022/11/18 03:56:00;;;;;;;3.10;0.80;;;7.00;99.90;;;;;;5093045;28;20036;-81
2022/11/18 03:58:44;;;;;;;1.40;0.80;;;7.00;99.90;;;;;;5093094;28;20111;-81
2022/11/18 04:01:42;;;;;;;2.50;0.97;;;7.00;99.90;;;;;;5093185;28;20508;-81
2022/11/18 04:04:09;;;;;;;1.20;0.73;;;7.00;99.90;;;;;;5033963;28;20082;-81
2022/11/18 04:06:49;;;;;;;1.73;0.77;;;7.00;99.90;;;;;;5072682;28;20213;-82
2022/11/18 04:09:20;;;;;;;2.27;0.90;;;7.00;99.90;;;;;;5072734;28;20029;-82
2022/11/18 04:12:01;;;;;;;1.63;0.80;;;6.90;99.90;;;;;;5085360;28;20080;-81
2022/11/18 04:14:29;;;;;;;0.70;0.60;;;6.90;99.90;;;;;;5092864;28;20028;-81
2022/11/18 04:16:54;;;;;;;4.23;0.77;;;7.00;99.90;;;;;;5092113;28;20040;-82
2022/11/18 04:19:20;;;;;;;1.90;0.67;;;7.00;99.90;;;;;;5093001;28;20035;-82
2022/11/18 04:21:47;;;;;;;2.97;0.80;;;7.00;99.90;;;;;;5092515;28;20069;-82
2022/11/18 04:24:13;;;;;;;0.57;0.57;;;7.00;99.90;;;;;;5092545;28;20024;-82
2022/11/18 04:26:38;;;;;;;1.67;0.97;;;7.00;99.90;;;;;;5090801;28;20028;-82
2022/11/18 04:29:04;;;;;;;1.13;0.63;;;7.00;99.90;;;;;;5092469;28;20479;-82
2022/11/18 04:31:29;;;;;;;1.67;0.70;;;7.00;99.90;;;;;;5092709;28;20649;-82
2022/11/18 04:33:55;;;;;;;4.77;0.87;;;7.00;99.90;;;;;;5091977;28;20032;-82
2022/11/18 04:36:21;;;;;;;2.30;0.90;;;7.00;99.90;;;;;;5092348;28;20028;-82
2022/11/18 04:38:46;;;;;;;0.90;0.60;;;7.00;99.90;;;;;;5092071;28;20035;-82
2022/11/18 04:41:12;;;;;;;1.23;0.60;;;7.00;99.90;;;;;;5092474;28;20545;-82
2022/11/18 04:43:37;;;;;;;1.80;0.70;;;7.00;99.90;;;;;;5092228;28;20039;-82
2022/11/18 04:46:03;;;;;;;1.60;0.70;;;7.00;99.90;;;;;;5092695;28;20058;-82
2022/11/18 04:48:28;;;;;;;2.43;0.80;;;7.00;99.90;;;;;;5092277;28;20048;-83
2022/11/18 04:50:56;;;;;;;1.63;0.77;;;7.00;99.90;;;;;;5092778;28;20520;-83
2022/11/18 04:53:24;;;;;;;1.40;0.70;;;7.00;99.90;;;;;;5091265;28;20020;-80
2022/11/18 04:55:50;;;;;;;4.33;0.60;;;7.10;99.90;;;;;;5091557;28;20405;-80
2022/11/18 04:58:15;;;;;;;0.80;0.70;;;7.10;99.90;;;;;;5090178;28;20024;-80
2022/11/18 05:00:41;;;;;;;1.50;0.70;;;7.00;99.90;;;;;;5091803;28;20093;-80
2022/11/18 05:03:06;;;;;;;1.60;0.80;;;7.00;99.90;;;;;;5089815;28;20067;-80
2022/11/18 05:05:33;;;;;;;0.87;0.80;;;7.00;99.90;;;;;;5091862;28;20031;-80
2022/11/18 05:07:59;;;;;;;0.87;0.60;;;7.10;99.90;;;;;;5091355;28;20032;-80
2022/11/18 05:10:24;;;;;;;0.70;0.70;;;7.10;99.90;;;;;;5091408;28;20040;-80
2022/11/18 05:12:51;;;;;;;0.97;0.50;;;7.10;99.90;;;;;;5091825;28;20024;-82
2022/11/18 05:15:19;;;;;;;0.90;0.60;;;7.10;99.90;;;;;;5094093;28;20687;-84
2022/11/18 05:17:45;;;;;;;2.60;0.70;;;7.10;99.90;;;;;;5096457;28;20038;-84
2022/11/18 05:20:11;;;;;;;3.37;0.80;;;7.10;99.90;;;;;;5096841;28;20103;-84
2022/11/18 05:22:37;;;;;;;0.60;0.60;;;7.10;99.90;;;;;;5096455;28;20028;-84
2022/11/18 05:25:04;;;;;;;0.90;0.70;;;7.10;99.90;;;;;;5096793;28;20055;-84
2022/11/18 05:27:29;;;;;;;1.23;0.70;;;7.10;99.90;;;;;;5095271;28;20048;-84
2022/11/18 05:29:55;;;;;;;1.10;0.60;;;7.10;99.90;;;;;;5096669;28;20458;-84
2022/11/18 05:32:20;;;;;;;1.03;0.70;;;7.10;99.90;;;;;;5096045;28;20028;-84
2022/11/18 05:34:46;;;;;;;0.67;0.60;;;7.10;99.90;;;;;;5095436;28;20148;-84
2022/11/18 05:37:12;;;;;;;1.13;0.70;;;7.10;99.90;;;;;;5096103;28;20122;-84
2022/11/18 05:39:37;;;;;;;2.30;1.00;;;7.10;99.90;;;;;;5096330;28;20055;-84
2022/11/18 05:44:48;;;;;;;1.00;0.73;;;7.10;99.90;;;;;;5096564;28;20077;-84
2022/11/18 05:47:14;;;;;;;1.50;0.80;;;7.00;99.90;;;;;;5093692;28;20027;-84
2022/11/18 05:49:40;;;;;;;1.50;0.73;;;7.00;99.90;;;;;;5095990;28;20028;-84
2022/11/18 05:52:06;;;;;;;0.80;0.70;;;7.00;99.90;;;;;;5095902;28;20448;-84
2022/11/18 05:54:31;;;;;;;1.90;0.60;;;7.00;99.90;;;;;;5095602;28;20020;-83
2022/11/18 05:56:57;;;;;;;1.10;0.60;;;7.10;99.90;;;;;;5095948;28;20437;-83
2022/11/18 05:59:23;;;;;;;1.53;0.63;;;7.10;99.90;;;;;;5095731;28;20028;-84
2022/11/18 06:01:57;;;;;;;0.80;0.60;;;7.10;99.90;;;;;;5095934;28;20035;-84
2022/11/18 06:04:47;;;;;;;1.95;0.70;;;7.10;99.90;;;;;;5094749;28;20107;-84
2022/11/18 06:07:24;;;;;;;0.77;0.50;;;7.10;99.90;;;;;;5093220;28;20024;-83
2022/11/18 06:09:54;;;;;;;0.60;0.60;;;7.10;99.90;;;;;;5094244;28;20019;-83
2022/11/18 06:12:24;;;;;;;0.50;0.50;;;7.00;99.90;;;;;;5092984;28;20377;-83
2022/11/18 06:15:01;;;;;;;0.50;0.50;;;7.00;99.90;;;;;;5095323;28;20111;-83
2022/11/18 06:17:44;;;;;;;0.60;0.60;;;7.00;99.90;;;;;;5095906;28;20046;-83
2022/11/18 06:20:10;;;;;;;0.40;0.40;;;7.10;99.90;;;;;;5095319;28;20021;-81
2022/11/18 06:22:36;;;;;;;0.90;0.70;;;7.10;99.90;;;;;;5092385;28;20107;-81
2022/11/18 06:25:02;;;;;;;0.90;0.70;;;7.10;99.90;;;;;;5094151;28;20032;-81
2022/11/18 06:27:29;;;;;;;0.60;0.50;;;7.10;99.90;;;;;;5092349;28;20103;-81
2022/11/18 06:29:54;;;;;;;1.33;0.60;;;7.10;99.90;;;;;;5094057;28;20475;-81
2022/11/18 06:32:20;;;;;;;0.93;0.70;;;7.20;99.90;;;;;;5094034;28;20028;-81
2022/11/18 06:34:45;;;;;;;2.90;0.60;;;7.10;99.90;;;;;;5093920;28;20024;-81
2022/11/18 06:37:15;;;;;;;1.20;0.87;;;7.10;99.90;;;;;;5094087;28;20035;-81
2022/11/18 06:39:41;;;;;;;0.63;0.60;;;7.20;99.90;;;;;;5094172;28;20025;-81
2022/11/18 06:42:07;;;;;;;3.27;0.90;;;7.10;99.90;;;;;;5093439;28;20028;-81
2022/11/18 06:44:32;;;;;;;1.10;0.70;;;7.10;99.90;;;;;;5093763;28;20020;-81
2022/11/18 06:46:58;;;;;;;1.73;0.60;;;7.10;99.90;;;;;;5094105;28;20484;-81
2022/11/18 06:49:25;;;;;;;0.73;0.60;;;7.10;99.90;;;;;;5093566;28;20051;-81
2022/11/18 06:51:51;;;;;;;0.93;0.70;;;7.10;99.90;;;;;;5093733;28;20024;-81
2022/11/18 06:54:16;;;;;;;0.63;0.63;;;7.10;99.90;;;;;;5093461;28;20380;-81
2022/11/18 06:56:42;;;;;;;1.10;0.60;;;7.10;99.90;;;;;;5094098;28;20039;-81
2022/11/18 06:59:08;;;;;;;1.50;0.50;;;7.10;99.90;;;;;;5093613;28;20125;-81
2022/11/18 07:01:36;;;;;;;0.50;0.50;;;7.10;99.90;;;;;;5094048;28;20118;-81
2022/11/18 07:04:03;;;;;;;0.57;0.57;;;7.10;99.90;;;;;;5093645;28;20028;-81
2022/11/18 07:06:31;;;;;;;0.90;0.50;;;7.10;99.90;;;;;;5093628;28;20077;-81
2022/11/18 07:09:00;;;;;;;0.87;0.60;;;7.10;99.90;;;;;;5093732;28;20121;-81
2022/11/18 07:11:26;;;;;;;1.30;0.53;;;7.10;99.90;;;;;;5093612;28;20047;-81
2022/11/18 07:13:51;;;;;;;2.23;0.60;;;7.20;99.90;;;;;;5075545;28;20043;-81
2022/11/18 07:16:20;;;;;;;1.03;0.60;;;7.20;99.90;;;;;;5093720;28;20103;-81
2022/11/18 07:18:46;;;;;;;0.97;0.70;;;7.20;99.90;;;;;;5093768;28;20020;-81
2022/11/18 07:21:15;;;;;;;0.83;0.70;;;7.20;99.90;;;;;;5092121;28;20369;-81
2022/11/18 07:23:41;;;;;;;1.27;0.90;;;7.20;99.90;;;;;;5092590;28;20038;-80
2022/11/18 07:26:07;;;;;;;1.23;0.80;;;7.20;99.90;;;;;;5092915;28;20024;-81
2022/11/18 07:28:33;;;;;;;1.30;0.83;;;7.20;99.90;;;;;;5094510;28;20035;-81
2022/11/18 07:31:05;;;;;;;1.27;0.80;;;7.20;99.90;;;;;;5094136;28;20020;-81
2022/11/18 07:33:32;;;;;;;2.30;1.00;;;7.10;99.90;;;;;;5093902;28;20529;-81
2022/11/18 07:36:06;;;;;;;2.50;0.90;;;7.20;99.90;;;;;;5093789;28;20107;-81
2022/11/18 07:38:31;;;;;;;0.93;0.50;;;7.30;99.90;;;;;;5086238;28;20645;-81
2022/11/18 07:41:09;;;;;;;1.43;0.60;;;7.40;99.90;;;;;;5093673;28;20016;-81
2022/11/18 07:43:35;;;;;;;0.90;0.70;;;7.40;99.90;;;;;;5093547;28;20016;-81
2022/11/18 07:46:13;;;;;;;1.10;0.60;;;7.30;99.90;;;;;;5072865;28;20097;-81
2022/11/18 07:48:39;;;;;;;1.47;0.80;;;7.30;99.90;;;;;;5089682;28;20101;-81
2022/11/18 07:51:06;;;;;;;1.07;0.83;;;7.40;99.90;;;;;;5091609;28;20069;-81
2022/11/18 07:53:32;;;;;;;1.20;0.90;;;7.40;99.90;;;;;;5078734;28;20029;-81
2022/11/18 07:55:58;;;;;;;1.00;0.73;;;7.30;99.90;;;;;;5092071;28;20028;-81
2022/11/18 07:58:24;;;;;;;1.17;0.80;;;7.50;99.90;;;;;;5085758;28;20055;-81
2022/11/18 08:00:49;;;;;;;0.63;0.63;;;7.40;99.90;;;;;;5091480;28;20032;-81
2022/11/18 08:03:15;;;;;;;0.67;0.67;;;7.50;99.90;;;;;;5091217;28;20173;-81
2022/11/18 08:05:40;;;;;;;1.00;0.63;;;7.50;99.90;;;;;;5090500;28;20033;-81
2022/11/18 08:08:06;;;;;;;1.53;0.80;;;7.40;99.90;;;;;;5090947;28;20040;-81
2022/11/18 08:10:32;;;;;;;1.50;0.83;;;7.50;99.90;;;;;;5089537;28;20093;-81
2022/11/18 08:12:57;;;;;;;1.40;1.00;;;7.50;99.90;;;;;;5089957;28;20016;-81
2022/11/18 08:15:23;;;;;;;2.37;1.00;;;7.40;99.90;;;;;;5090053;28;20078;-81
2022/11/18 08:17:49;;;;;;;0.73;0.73;;;7.50;99.90;;;;;;5090230;28;20032;-81
2022/11/18 08:20:15;;;;;;;0.70;0.70;;;7.50;99.90;;;;;;5090111;28;20403;-81
2022/11/18 08:22:40;;;;;;;0.70;0.70;;;7.50;99.90;;;;;;5090202;28;20085;-81
2022/11/18 08:25:07;;;;;;;3.40;1.10;;;7.50;99.90;;;;;;5090437;28;20455;-81
2022/11/18 08:27:32;;;;;;;2.50;0.70;;;7.50;99.90;;;;;;5090995;28;20106;-81
2022/11/18 08:29:58;;;;;;;0.90;0.80;;;7.50;99.90;;;;;;5087624;28;20110;-81
2022/11/18 08:32:23;;;;;;;1.90;1.07;;;7.60;99.90;;;;;;5089841;28;20342;-81
2022/11/18 08:34:50;;;;;;;1.73;1.10;;;7.60;99.90;;;;;;5082417;28;20080;-81
2022/11/18 08:37:16;;;;;;;1.60;1.10;;;7.60;99.90;;;;;;5060960;28;20111;-81
2022/11/18 08:39:41;;;;;;;2.20;1.20;;;7.60;99.90;;;;;;5090208;28;20115;-81
2022/11/18 08:42:09;;;;;;;1.50;1.20;;;7.60;99.90;;;;;;5089049;28;20131;-81
2022/11/18 08:44:35;;;;;;;1.43;1.07;;;7.50;99.90;;;;;;5089687;28;20043;-81
2022/11/18 08:47:00;;;;;;;1.60;1.07;;;7.60;99.90;;;;;;5089586;28;20036;-81
2022/11/18 08:49:26;;;;;;;2.40;1.80;;;7.50;99.90;;;;;;5090319;28;20055;-83
2022/11/18 08:51:51;;;;;;;1.50;1.10;;;7.60;99.90;;;;;;5092968;28;20148;-83
2022/11/18 08:54:17;;;;;;;2.60;1.27;;;7.60;99.90;;;;;;5093248;28;20054;-83
2022/11/18 08:56:43;;;;;;;2.97;1.20;;;7.60;99.90;;;;;;5093048;28;20024;-83
2022/11/18 08:59:08;;;;;;;2.13;1.23;;;7.70;99.90;;;;;;5092227;28;20039;-83
2022/11/18 09:01:37;;;;;;;1.97;1.40;;;7.70;99.90;;;;;;5092440;28;20031;-83
2022/11/18 09:04:05;;;;;;;1.63;1.20;;;7.80;99.90;;;;;;5092117;28;20431;-83
2022/11/18 09:06:31;;;;;;;1.37;1.17;;;7.80;99.90;;;;;;5074320;28;20042;-83
2022/11/18 09:08:57;;;;;;;4.50;1.20;;;7.80;99.90;;;;;;5091771;28;20020;-83
2022/11/18 09:11:24;;;;;;;1.77;1.40;;;7.70;99.90;;;;;;5092578;28;20032;-83
2022/11/18 09:13:55;;;;;;;2.17;1.47;;;7.70;99.90;;;;;;5092404;28;20054;-83
2022/11/18 09:16:22;;;;;;;1.80;1.40;;;7.70;99.90;;;;;;5091932;28;20402;-84
2022/11/18 09:18:49;;;;;;;6.33;1.30;;;7.60;99.90;;;;;;5092645;28;20024;-83
2022/11/18 09:21:15;;;;;;;1.97;1.40;;;7.50;99.90;;;;;;5092709;28;20066;-83
2022/11/18 09:23:41;;;;;;;3.20;1.10;;;7.50;99.90;;;;;;5092392;28;20034;-83
2022/11/18 09:26:10;;;;;;;1.23;0.97;;;7.40;99.90;;;;;;5084653;28;20032;-83
2022/11/18 09:28:35;;;;;;;1.37;0.90;;;7.40;99.90;;;;;;5092581;28;20040;-83
2022/11/18 09:31:10;;;;;;;1.93;0.83;;;7.30;99.90;;;;;;5092696;28;20055;-84
2022/11/18 09:33:36;;;;;;;1.08;0.80;;;7.30;99.90;;;;;;5074181;28;20120;-83
2022/11/18 09:36:02;;;;;;;0.73;0.70;;;7.20;99.90;;;;;;5091517;28;20046;-80
2022/11/18 09:38:29;;;;;;;1.00;0.70;;;7.20;99.90;;;;;;5089566;28;20036;-83
2022/11/18 09:41:03;;;;;;;1.17;0.70;;;7.20;99.90;;;;;;5073875;28;20476;-83
2022/11/18 09:43:38;;;;;;;1.90;0.70;;;7.20;99.90;;;;;;5091561;28;20476;-83
2022/11/18 09:46:40;;;;;;;1.10;0.80;;;7.10;99.90;;;;;;5073255;28;20544;-83
2022/11/18 09:49:23;;;;;;;1.00;0.70;;;7.00;99.90;;;;;;5077055;28;20128;-83
2022/11/18 09:51:51;;;;;;;0.97;0.70;;;7.00;99.90;;;;;;5089877;28;20468;-84
2022/11/18 09:54:20;;;;;;;0.70;0.70;;;7.00;99.90;;;;;;5092146;28;20020;-83
2022/11/18 09:56:47;;;;;;;1.93;0.90;;;6.90;99.90;;;;;;5091899;28;20503;-83
2022/11/18 09:59:14;;;;;;;2.70;1.00;;;6.90;99.90;;;;;;5092431;28;20059;-84
2022/11/18 10:01:40;;;;;;;0.80;0.70;;;6.90;99.90;;;;;;5089546;28;20115;-83
2022/11/18 10:04:13;;;;;;;0.70;0.70;;;6.90;99.90;;;;;;5094457;28;20028;-83
2022/11/18 10:06:38;;;;;;;2.47;1.10;;;6.90;99.90;;;;;;5092657;28;20020;-84
2022/11/18 10:09:26;;;;;;;1.63;1.10;;;7.00;99.90;;;;;;5094221;28;20422;-84
2022/11/18 10:12:13;;;;;;;1.13;0.90;;;7.00;99.90;;;;;;5093777;28;20094;-84
2022/11/18 10:14:54;;;;;;;1.00;0.80;;;7.10;99.90;;;;;;5093996;28;20022;-83
2022/11/18 10:17:45;;;;;;;1.27;0.97;;;7.10;99.90;;;;;;5093188;28;20476;-84
2022/11/18 10:20:27;;;;;;;1.37;0.93;;;7.20;99.90;;;;;;5089202;28;20414;-83
2022/11/18 10:22:57;;;;;;;1.03;0.80;;;7.20;99.90;;;;;;5093181;28;20024;-84
2022/11/18 10:25:23;;;;;;;0.93;0.70;;;7.30;99.90;;;;;;5092324;28;20036;-83
2022/11/18 10:27:49;;;;;;;0.90;0.70;;;7.30;99.90;;;;;;5092473;28;20077;-84
2022/11/18 10:30:24;;;;;;;1.10;0.90;;;7.30;99.90;;;;;;5091605;28;20027;-83
2022/11/18 10:32:53;;;;;;;1.23;0.90;;;7.20;99.90;;;;;;5087706;28;20028;-84
2022/11/18 10:35:35;;;;;;;1.03;0.80;;;7.20;99.90;;;;;;5092553;28;20054;-83
2022/11/18 10:38:21;;;;;;;1.00;0.90;;;7.10;99.90;;;;;;5091130;28;20078;-83
2022/11/18 10:40:49;;;;;;;1.43;0.80;;;7.10;99.90;;;;;;5093040;28;20039;-83
2022/11/18 10:43:42;;;;;;;0.73;0.73;;;7.10;99.90;;;;;;5094352;28;20032;-84
2022/11/18 10:46:25;;;;;;;1.67;0.80;;;7.10;99.90;;;;;;5092799;28;20082;-83
2022/11/18 10:49:08;;;;;;;1.60;1.00;;;7.00;99.90;;;;;;5093141;28;20050;-84
2022/11/18 10:51:39;;;;;;;1.20;0.73;;;6.90;99.90;;;;;;5089786;28;20489;-84
2022/11/18 10:54:20;;;;;;;2.27;1.10;;;6.90;99.90;;;;;;5095387;28;20036;-84
2022/11/18 10:57:03;;;;;;;2.90;0.97;;;6.90;99.90;;;;;;5095358;28;20020;-85
2022/11/18 10:59:30;;;;;;;1.60;1.10;;;6.90;99.90;;;;;;5082552;28;20016;-84
2022/11/18 11:02:21;;;;;;;2.27;1.40;;;7.00;99.90;;;;;;5077043;28;20020;-84
2022/11/18 11:04:50;;;;;;;1.80;1.10;;;7.00;99.90;;;;;;5094612;28;20032;-84
2022/11/18 11:07:23;;;;;;;1.80;1.00;;;7.10;99.90;;;;;;5079964;28;20039;-83
2022/11/18 11:10:21;;;;;;;1.27;1.10;;;7.10;99.90;;;;;;5075391;28;20036;-83
2022/11/18 11:12:55;;;;;;;2.13;1.13;;;7.20;99.90;;;;;;5072571;28;20115;-83
2022/11/18 11:15:43;;;;;;;1.80;1.10;;;7.30;99.90;;;;;;5077430;28;20024;-83
2022/11/18 11:18:41;;;;;;;1.17;1.00;;;7.30;99.90;;;;;;5093507;28;20069;-76
2022/11/18 11:21:11;;;;;;;2.23;1.10;;;7.30;99.90;;;;;;5094687;28;20468;-84
2022/11/18 11:23:37;;;;;;;2.73;1.70;;;7.40;99.90;;;;;;5094871;28;20016;-84
2022/11/18 11:26:12;;;;;;;2.13;1.40;;;7.40;99.90;;;;;;5094640;28;20024;-84
2022/11/18 11:29:02;;;;;;;2.08;1.30;;;7.40;99.90;;;;;;5094935;28;20381;-84
2022/11/18 11:31:38;;;;;;;2.03;1.00;;;7.40;99.90;;;;;;5094769;28;20035;-84
2022/11/18 11:34:10;;;;;;;1.80;1.00;;;7.40;99.90;;;;;;5094517;28;20081;-84
2022/11/18 11:36:51;;;;;;;1.53;0.90;;;7.50;99.90;;;;;;5094704;28;20032;-84
2022/11/18 11:39:38;;;;;;;1.10;0.83;;;7.50;99.90;;;;;;5083669;28;20334;-84
2022/11/18 11:42:12;;;;;;;1.10;0.93;;;7.40;99.90;;;;;;5074148;28;20100;-84
2022/11/18 11:45:04;;;;;;;1.73;0.80;;;7.30;99.90;;;;;;5074257;28;20054;-84
2022/11/18 11:47:49;;;;;;;1.97;1.00;;;7.20;99.90;;;;;;5063063;28;20052;-84
2022/11/18 11:50:54;;;;;;;0.85;0.80;;;7.20;99.90;;;;;;5074020;28;20022;-84
2022/11/18 11:53:38;;;;;;;0.80;0.80;;;7.20;99.90;;;;;;5092397;28;20024;-84
2022/11/18 11:56:16;;;;;;;2.87;0.90;;;7.20;99.90;;;;;;5094247;28;20099;-84
2022/11/18 11:58:53;;;;;;;0.93;0.80;;;7.30;99.90;;;;;;5093214;28;20039;-81
2022/11/18 12:01:42;;;;;;;0.90;0.77;;;7.20;99.90;;;;;;5091407;28;20027;-81
2022/11/18 12:04:24;;;;;;;1.20;0.80;;;7.20;99.90;;;;;;5091600;28;20020;-81
2022/11/18 12:06:52;;;;;;;1.00;0.90;;;7.20;99.90;;;;;;5090907;28;20472;-81
2022/11/18 12:09:25;;;;;;;0.70;0.70;;;7.20;99.90;;;;;;5091095;28;20023;-81
2022/11/18 12:12:00;;;;;;;2.03;0.80;;;7.30;99.90;;;;;;5091105;28;20376;-81
2022/11/18 12:14:48;;;;;;;2.30;0.80;;;7.30;99.90;;;;;;5089268;28;20091;-81
2022/11/18 12:17:26;;;;;;;1.40;0.77;;;7.30;99.90;;;;;;5092275;28;20781;-81
2022/11/18 12:19:52;;;;;;;0.87;0.80;;;7.30;99.90;;;;;;5090984;28;20020;-81
2022/11/18 12:22:17;;;;;;;0.97;0.73;;;7.30;99.90;;;;;;5090608;28;20047;-81
2022/11/18 12:24:43;;;;;;;1.40;0.80;;;7.30;99.90;;;;;;5091276;28;20113;-81
2022/11/18 12:27:09;;;;;;;0.87;0.67;;;7.30;99.90;;;;;;5089082;28;20039;-81
2022/11/18 12:29:49;;;;;;;0.70;0.70;;;7.30;99.90;;;;;;5090142;28;20062;-81
2022/11/18 12:32:35;;;;;;;1.30;0.80;;;7.20;99.90;;;;;;5089093;28;20048;-81
2022/11/18 12:35:00;;;;;;;;;;;7.20;99.90;;;;;;5090761;28;20025;-81
2022/11/18 12:37:26;;;;;;;0.93;0.83;;;7.20;99.90;;;;;;5090000;28;20597;-81
2022/11/18 12:39:54;;;;;;;3.63;0.90;;;7.10;99.90;;;;;;5090016;28;20020;-81
2022/11/18 12:45:41;;;;;;;3.53;1.00;;;7.10;99.90;;;;;;5079693;28;20503;-81
2022/11/18 12:48:22;;;;;;;0.80;0.80;;;7.00;99.90;;;;;;5070072;28;20057;-81
2022/11/18 12:50:50;;;;;;;2.47;1.00;;;7.00;99.90;;;;;;5089645;28;20115;-81
2022/11/18 12:53:36;;;;;;;1.33;0.83;;;7.00;99.90;;;;;;5081086;28;20024;-81
2022/11/18 12:56:16;;;;;;;1.53;0.90;;;6.90;99.90;;;;;;5087222;28;20114;-81
2022/11/18 12:59:11;;;;;;;2.43;0.97;;;6.90;99.90;;;;;;5088484;28;20028;-81
2022/11/18 13:01:37;;;;;;;2.90;1.20;;;6.90;99.90;;;;;;5086360;28;20112;-81
2022/11/18 13:04:14;;;;;;;1.60;1.00;;;6.80;99.90;;;;;;5087446;28;20809;-81
2022/11/18 13:06:41;;;;;;;1.30;1.00;;;6.80;99.90;;;;;;5085505;28;20034;-82
2022/11/18 13:09:15;;;;;;;2.53;1.10;;;6.80;99.90;;;;;;5070554;28;20049;-84
2022/11/18 13:11:49;;;;;;;1.63;1.10;;;6.80;99.90;;;;;;5087040;28;20080;-83
2022/11/18 13:17:50;;;;;;;1.60;1.10;;;6.80;99.90;;;;;;5084879;28;20086;-83
2022/11/18 13:20:32;;;;;;;2.28;0.95;;;6.70;99.90;;;;;;5080827;28;20122;-84
2022/11/18 13:25:54;;;;;;;1.10;0.90;;;6.80;99.90;;;;;;5069909;28;20062;-84
2022/11/18 13:28:23;;;;;;;1.73;1.10;;;6.70;99.90;;;;;;5090961;28;20035;-84
2022/11/18 13:31:22;;;;;;;1.87;1.00;;;6.70;99.90;;;;;;5090582;28;20515;-84
2022/11/18 13:33:49;;;;;;;2.00;1.00;;;6.70;99.90;;;;;;5070017;28;20036;-84
2022/11/18 13:36:20;;;;;;;2.00;1.10;;;6.70;99.90;;;;;;5072420;28;20031;-84